sensor_id;sensor_type;location;lat;lon;timestamp;P1;durP1;ratioP1;P2;durP2;ratioP2
15878;SDS011;61999;51.514;14.614;2022-10-16T00:01:27;10.53;;;9.53;;
15878;SDS011;61999;51.514;14.614;2022-10-16T00:03:58;8.97;;;8.27;;
15878;SDS011;61999;51.514;14.614;2022-10-16T00:06:28;11.30;;;10.30;;
15878;SDS011;61999;51.514;14.614;2022-10-16T00:08:57;11.60;;;10.40;;
15878;SDS011;61999;51.514;14.614;2022-10-16T00:11:26;9.57;;;8.67;;
15878;SDS011;61999;51.514;14.614;2022-10-16T00:13:57;8.27;;;7.57;;
15878;SDS011;61999;51.514;14.614;2022-10-16T00:16:29;8.00;;;7.30;;
15878;SDS011;61999;51.514;14.614;2022-10-16T00:18:58;9.03;;;8.23;;
15878;SDS011;61999;51.514;14.614;2022-10-16T00:21:27;8.17;;;7.47;;
15878;SDS011;61999;51.514;14.614;2022-10-16T00:23:58;8.80;;;8.10;;
15878;SDS011;61999;51.514;14.614;2022-10-16T00:26:28;7.93;;;7.13;;
15878;SDS011;61999;51.514;14.614;2022-10-16T00:28:58;7.17;;;6.67;;
15878;SDS011;61999;51.514;14.614;2022-10-16T00:31:27;7.27;;;6.67;;
15878;SDS011;61999;51.514;14.614;2022-10-16T00:33:56;7.13;;;6.50;;
15878;SDS011;61999;51.514;14.614;2022-10-16T00:36:25;7.00;;;6.50;;
15878;SDS011;61999;51.514;14.614;2022-10-16T00:38:54;7.53;;;6.93;;
15878;SDS011;61999;51.514;14.614;2022-10-16T00:41:30;7.40;;;6.50;;
15878;SDS011;61999;51.514;14.614;2022-10-16T00:43:59;8.53;;;6.40;;
15878;SDS011;61999;51.514;14.614;2022-10-16T00:46:31;7.53;;;6.77;;
15878;SDS011;61999;51.514;14.614;2022-10-16T00:49:07;7.10;;;6.57;;
15878;SDS011;61999;51.514;14.614;2022-10-16T00:51:38;6.93;;;6.33;;
15878;SDS011;61999;51.514;14.614;2022-10-16T00:54:10;9.67;;;8.70;;
15878;SDS011;61999;51.514;14.614;2022-10-16T00:56:42;7.73;;;7.03;;
15878;SDS011;61999;51.514;14.614;2022-10-16T00:59:14;8.00;;;7.23;;
15878;SDS011;61999;51.514;14.614;2022-10-16T01:01:47;8.03;;;7.23;;
15878;SDS011;61999;51.514;14.614;2022-10-16T01:04:16;8.43;;;7.67;;
15878;SDS011;61999;51.514;14.614;2022-10-16T01:06:46;7.83;;;6.97;;
15878;SDS011;61999;51.514;14.614;2022-10-16T01:09:26;7.57;;;6.87;;
15878;SDS011;61999;51.514;14.614;2022-10-16T01:12:07;8.43;;;7.63;;
15878;SDS011;61999;51.514;14.614;2022-10-16T01:14:43;6.80;;;6.20;;
15878;SDS011;61999;51.514;14.614;2022-10-16T01:17:22;6.83;;;6.23;;
15878;SDS011;61999;51.514;14.614;2022-10-16T01:20:01;6.77;;;6.27;;
15878;SDS011;61999;51.514;14.614;2022-10-16T01:22:39;6.97;;;6.30;;
15878;SDS011;61999;51.514;14.614;2022-10-16T01:25:25;6.10;;;5.60;;
15878;SDS011;61999;51.514;14.614;2022-10-16T01:28:13;6.53;;;5.83;;
15878;SDS011;61999;51.514;14.614;2022-10-16T01:30:44;5.40;;;5.00;;
15878;SDS011;61999;51.514;14.614;2022-10-16T01:33:14;6.07;;;5.57;;
15878;SDS011;61999;51.514;14.614;2022-10-16T01:35:51;7.03;;;6.40;;
15878;SDS011;61999;51.514;14.614;2022-10-16T01:38:25;7.03;;;6.33;;
15878;SDS011;61999;51.514;14.614;2022-10-16T01:41:03;6.10;;;5.70;;
15878;SDS011;61999;51.514;14.614;2022-10-16T01:43:40;5.77;;;5.27;;
15878;SDS011;61999;51.514;14.614;2022-10-16T01:46:16;6.30;;;5.70;;
15878;SDS011;61999;51.514;14.614;2022-10-16T01:48:48;8.50;;;5.87;;
15878;SDS011;61999;51.514;14.614;2022-10-16T01:51:18;6.13;;;5.57;;
15878;SDS011;61999;51.514;14.614;2022-10-16T01:53:49;5.50;;;5.10;;
15878;SDS011;61999;51.514;14.614;2022-10-16T01:56:22;5.77;;;5.30;;
15878;SDS011;61999;51.514;14.614;2022-10-16T01:58:56;6.40;;;5.90;;
15878;SDS011;61999;51.514;14.614;2022-10-16T02:01:29;7.47;;;6.23;;
15878;SDS011;61999;51.514;14.614;2022-10-16T02:04:03;7.53;;;6.93;;
15878;SDS011;61999;51.514;14.614;2022-10-16T02:06:48;6.50;;;6.00;;
15878;SDS011;61999;51.514;14.614;2022-10-16T02:09:15;6.23;;;5.73;;
15878;SDS011;61999;51.514;14.614;2022-10-16T02:11:44;6.53;;;6.03;;
15878;SDS011;61999;51.514;14.614;2022-10-16T02:14:13;6.53;;;5.93;;
15878;SDS011;61999;51.514;14.614;2022-10-16T02:16:42;7.17;;;6.57;;
15878;SDS011;61999;51.514;14.614;2022-10-16T02:19:13;7.13;;;6.47;;
15878;SDS011;61999;51.514;14.614;2022-10-16T02:21:43;7.53;;;6.80;;
15878;SDS011;61999;51.514;14.614;2022-10-16T02:24:18;7.77;;;7.13;;
15878;SDS011;61999;51.514;14.614;2022-10-16T02:27:01;8.03;;;7.33;;
15878;SDS011;61999;51.514;14.614;2022-10-16T02:29:38;7.40;;;6.80;;
15878;SDS011;61999;51.514;14.614;2022-10-16T02:32:15;7.40;;;6.80;;
15878;SDS011;61999;51.514;14.614;2022-10-16T02:34:48;7.83;;;7.20;;
15878;SDS011;61999;51.514;14.614;2022-10-16T02:37:19;7.53;;;6.90;;
15878;SDS011;61999;51.514;14.614;2022-10-16T02:39:48;8.20;;;7.47;;
15878;SDS011;61999;51.514;14.614;2022-10-16T02:42:17;7.40;;;6.73;;
15878;SDS011;61999;51.514;14.614;2022-10-16T02:44:47;8.03;;;7.43;;
15878;SDS011;61999;51.514;14.614;2022-10-16T02:47:15;7.37;;;6.77;;
15878;SDS011;61999;51.514;14.614;2022-10-16T02:49:42;6.70;;;6.20;;
15878;SDS011;61999;51.514;14.614;2022-10-16T02:52:10;7.47;;;6.70;;
15878;SDS011;61999;51.514;14.614;2022-10-16T02:54:38;7.83;;;7.23;;
15878;SDS011;61999;51.514;14.614;2022-10-16T02:57:06;8.70;;;8.00;;
15878;SDS011;61999;51.514;14.614;2022-10-16T02:59:34;9.10;;;8.40;;
15878;SDS011;61999;51.514;14.614;2022-10-16T03:02:04;8.10;;;7.50;;
15878;SDS011;61999;51.514;14.614;2022-10-16T03:04:32;7.70;;;7.10;;
15878;SDS011;61999;51.514;14.614;2022-10-16T03:07:00;8.63;;;7.93;;
15878;SDS011;61999;51.514;14.614;2022-10-16T03:09:28;8.23;;;7.63;;
15878;SDS011;61999;51.514;14.614;2022-10-16T03:11:56;8.23;;;7.63;;
15878;SDS011;61999;51.514;14.614;2022-10-16T03:14:24;7.83;;;7.17;;
15878;SDS011;61999;51.514;14.614;2022-10-16T03:16:57;7.47;;;6.87;;
15878;SDS011;61999;51.514;14.614;2022-10-16T03:19:26;7.50;;;6.90;;
15878;SDS011;61999;51.514;14.614;2022-10-16T03:21:54;7.83;;;7.33;;
15878;SDS011;61999;51.514;14.614;2022-10-16T03:24:22;8.10;;;7.50;;
15878;SDS011;61999;51.514;14.614;2022-10-16T03:26:50;7.87;;;7.17;;
15878;SDS011;61999;51.514;14.614;2022-10-16T03:29:18;15.13;;;13.63;;
15878;SDS011;61999;51.514;14.614;2022-10-16T03:31:46;12.10;;;11.00;;
15878;SDS011;61999;51.514;14.614;2022-10-16T03:34:15;9.30;;;8.53;;
15878;SDS011;61999;51.514;14.614;2022-10-16T03:36:44;12.13;;;11.00;;
15878;SDS011;61999;51.514;14.614;2022-10-16T03:39:12;8.40;;;7.70;;
15878;SDS011;61999;51.514;14.614;2022-10-16T03:41:43;7.80;;;7.20;;
15878;SDS011;61999;51.514;14.614;2022-10-16T03:44:12;8.50;;;7.77;;
15878;SDS011;61999;51.514;14.614;2022-10-16T03:46:40;8.67;;;8.03;;
15878;SDS011;61999;51.514;14.614;2022-10-16T03:49:08;10.50;;;9.60;;
15878;SDS011;61999;51.514;14.614;2022-10-16T03:51:36;9.63;;;8.70;;
15878;SDS011;61999;51.514;14.614;2022-10-16T03:54:06;9.57;;;8.77;;
15878;SDS011;61999;51.514;14.614;2022-10-16T03:56:34;8.50;;;7.90;;
15878;SDS011;61999;51.514;14.614;2022-10-16T03:59:02;8.10;;;7.30;;
15878;SDS011;61999;51.514;14.614;2022-10-16T04:01:30;8.87;;;8.07;;
15878;SDS011;61999;51.514;14.614;2022-10-16T04:03:57;7.87;;;7.27;;
15878;SDS011;61999;51.514;14.614;2022-10-16T04:06:25;6.90;;;6.40;;
15878;SDS011;61999;51.514;14.614;2022-10-16T04:08:53;7.43;;;6.73;;
15878;SDS011;61999;51.514;14.614;2022-10-16T04:11:23;7.47;;;6.97;;
15878;SDS011;61999;51.514;14.614;2022-10-16T04:13:51;7.20;;;6.67;;
15878;SDS011;61999;51.514;14.614;2022-10-16T04:16:19;6.60;;;6.10;;
15878;SDS011;61999;51.514;14.614;2022-10-16T04:18:47;7.03;;;6.33;;
15878;SDS011;61999;51.514;14.614;2022-10-16T04:21:15;7.10;;;6.60;;
15878;SDS011;61999;51.514;14.614;2022-10-16T04:23:43;6.20;;;5.70;;
15878;SDS011;61999;51.514;14.614;2022-10-16T04:26:10;6.40;;;5.93;;
15878;SDS011;61999;51.514;14.614;2022-10-16T04:28:40;6.30;;;5.90;;
15878;SDS011;61999;51.514;14.614;2022-10-16T04:31:08;6.30;;;5.80;;
15878;SDS011;61999;51.514;14.614;2022-10-16T04:33:36;6.27;;;5.77;;
15878;SDS011;61999;51.514;14.614;2022-10-16T04:36:04;5.93;;;5.53;;
15878;SDS011;61999;51.514;14.614;2022-10-16T04:38:35;6.57;;;5.97;;
15878;SDS011;61999;51.514;14.614;2022-10-16T04:41:06;6.80;;;6.30;;
15878;SDS011;61999;51.514;14.614;2022-10-16T04:43:35;6.07;;;5.67;;
15878;SDS011;61999;51.514;14.614;2022-10-16T04:46:07;6.47;;;5.87;;
15878;SDS011;61999;51.514;14.614;2022-10-16T04:48:37;8.37;;;7.60;;
15878;SDS011;61999;51.514;14.614;2022-10-16T04:51:04;7.53;;;6.93;;
15878;SDS011;61999;51.514;14.614;2022-10-16T04:53:32;6.70;;;6.10;;
15878;SDS011;61999;51.514;14.614;2022-10-16T04:56:00;6.90;;;6.40;;
15878;SDS011;61999;51.514;14.614;2022-10-16T04:58:28;7.17;;;6.57;;
15878;SDS011;61999;51.514;14.614;2022-10-16T05:00:59;8.57;;;5.73;;
15878;SDS011;61999;51.514;14.614;2022-10-16T05:03:38;6.40;;;5.90;;
15878;SDS011;61999;51.514;14.614;2022-10-16T05:06:06;6.63;;;6.13;;
15878;SDS011;61999;51.514;14.614;2022-10-16T05:08:34;7.10;;;6.60;;
15878;SDS011;61999;51.514;14.614;2022-10-16T05:11:02;7.20;;;6.60;;
15878;SDS011;61999;51.514;14.614;2022-10-16T05:13:31;7.27;;;6.67;;
15878;SDS011;61999;51.514;14.614;2022-10-16T05:15:59;7.90;;;7.20;;
15878;SDS011;61999;51.514;14.614;2022-10-16T05:18:26;7.20;;;6.60;;
15878;SDS011;61999;51.514;14.614;2022-10-16T05:20:56;6.97;;;6.37;;
15878;SDS011;61999;51.514;14.614;2022-10-16T05:23:24;8.27;;;6.90;;
15878;SDS011;61999;51.514;14.614;2022-10-16T05:25:52;7.37;;;6.67;;
15878;SDS011;61999;51.514;14.614;2022-10-16T05:28:21;5.87;;;5.37;;
15878;SDS011;61999;51.514;14.614;2022-10-16T05:30:50;6.53;;;6.07;;
15878;SDS011;61999;51.514;14.614;2022-10-16T05:33:24;6.03;;;5.53;;
15878;SDS011;61999;51.514;14.614;2022-10-16T05:36:00;7.73;;;6.93;;
15878;SDS011;61999;51.514;14.614;2022-10-16T05:38:29;6.83;;;6.23;;
15878;SDS011;61999;51.514;14.614;2022-10-16T05:40:57;6.50;;;5.97;;
15878;SDS011;61999;51.514;14.614;2022-10-16T05:43:24;7.03;;;6.43;;
15878;SDS011;61999;51.514;14.614;2022-10-16T05:45:55;5.97;;;5.47;;
15878;SDS011;61999;51.514;14.614;2022-10-16T05:48:24;5.10;;;4.70;;
15878;SDS011;61999;51.514;14.614;2022-10-16T05:50:57;6.37;;;5.77;;
15878;SDS011;61999;51.514;14.614;2022-10-16T05:53:26;6.37;;;5.87;;
15878;SDS011;61999;51.514;14.614;2022-10-16T05:55:55;6.20;;;5.70;;
15878;SDS011;61999;51.514;14.614;2022-10-16T05:58:24;5.97;;;5.47;;
15878;SDS011;61999;51.514;14.614;2022-10-16T06:00:56;5.40;;;4.97;;
15878;SDS011;61999;51.514;14.614;2022-10-16T06:03:26;6.10;;;5.60;;
15878;SDS011;61999;51.514;14.614;2022-10-16T06:05:54;5.23;;;4.87;;
15878;SDS011;61999;51.514;14.614;2022-10-16T06:08:24;5.33;;;5.00;;
15878;SDS011;61999;51.514;14.614;2022-10-16T06:10:59;5.40;;;4.90;;
15878;SDS011;61999;51.514;14.614;2022-10-16T06:13:29;5.03;;;4.67;;
15878;SDS011;61999;51.514;14.614;2022-10-16T06:15:57;5.37;;;4.93;;
15878;SDS011;61999;51.514;14.614;2022-10-16T06:18:27;5.87;;;5.47;;
15878;SDS011;61999;51.514;14.614;2022-10-16T06:20:56;5.67;;;5.27;;
15878;SDS011;61999;51.514;14.614;2022-10-16T06:23:28;5.13;;;4.73;;
15878;SDS011;61999;51.514;14.614;2022-10-16T06:26:03;5.50;;;5.00;;
15878;SDS011;61999;51.514;14.614;2022-10-16T06:28:33;6.50;;;5.03;;
15878;SDS011;61999;51.514;14.614;2022-10-16T06:31:01;5.17;;;4.87;;
15878;SDS011;61999;51.514;14.614;2022-10-16T06:33:32;5.20;;;4.80;;
15878;SDS011;61999;51.514;14.614;2022-10-16T06:36:00;5.00;;;4.60;;
15878;SDS011;61999;51.514;14.614;2022-10-16T06:38:31;5.20;;;4.80;;
15878;SDS011;61999;51.514;14.614;2022-10-16T06:40:59;5.90;;;5.40;;
15878;SDS011;61999;51.514;14.614;2022-10-16T06:43:28;5.03;;;4.63;;
15878;SDS011;61999;51.514;14.614;2022-10-16T06:45:59;4.97;;;4.60;;
15878;SDS011;61999;51.514;14.614;2022-10-16T06:48:28;5.00;;;4.60;;
15878;SDS011;61999;51.514;14.614;2022-10-16T06:50:57;4.97;;;4.57;;
15878;SDS011;61999;51.514;14.614;2022-10-16T06:53:27;5.33;;;4.93;;
15878;SDS011;61999;51.514;14.614;2022-10-16T06:56:07;4.87;;;4.50;;
15878;SDS011;61999;51.514;14.614;2022-10-16T06:58:37;4.77;;;4.47;;
15878;SDS011;61999;51.514;14.614;2022-10-16T07:01:05;4.20;;;3.90;;
15878;SDS011;61999;51.514;14.614;2022-10-16T07:03:36;4.70;;;4.30;;
15878;SDS011;61999;51.514;14.614;2022-10-16T07:06:05;3.93;;;3.60;;
15878;SDS011;61999;51.514;14.614;2022-10-16T07:08:36;4.47;;;4.07;;
15878;SDS011;61999;51.514;14.614;2022-10-16T07:11:06;4.03;;;3.70;;
15878;SDS011;61999;51.514;14.614;2022-10-16T07:13:39;5.37;;;4.20;;
15878;SDS011;61999;51.514;14.614;2022-10-16T07:16:10;4.57;;;4.17;;
15878;SDS011;61999;51.514;14.614;2022-10-16T07:18:40;4.33;;;3.93;;
15878;SDS011;61999;51.514;14.614;2022-10-16T07:21:12;4.10;;;3.80;;
15878;SDS011;61999;51.514;14.614;2022-10-16T07:23:42;4.07;;;3.70;;
15878;SDS011;61999;51.514;14.614;2022-10-16T07:26:12;4.03;;;3.63;;
15878;SDS011;61999;51.514;14.614;2022-10-16T07:28:41;3.40;;;3.20;;
15878;SDS011;61999;51.514;14.614;2022-10-16T07:31:11;3.73;;;3.47;;
15878;SDS011;61999;51.514;14.614;2022-10-16T07:33:41;3.70;;;3.50;;
15878;SDS011;61999;51.514;14.614;2022-10-16T07:36:11;3.47;;;3.17;;
15878;SDS011;61999;51.514;14.614;2022-10-16T07:38:41;3.53;;;3.10;;
15878;SDS011;61999;51.514;14.614;2022-10-16T07:41:12;3.47;;;3.17;;
15878;SDS011;61999;51.514;14.614;2022-10-16T07:43:44;3.10;;;2.90;;
15878;SDS011;61999;51.514;14.614;2022-10-16T07:46:14;3.60;;;3.13;;
15878;SDS011;61999;51.514;14.614;2022-10-16T07:48:43;3.50;;;3.20;;
15878;SDS011;61999;51.514;14.614;2022-10-16T07:51:14;4.30;;;3.50;;
15878;SDS011;61999;51.514;14.614;2022-10-16T07:53:49;3.93;;;3.50;;
15878;SDS011;61999;51.514;14.614;2022-10-16T07:56:39;3.50;;;3.17;;
15878;SDS011;61999;51.514;14.614;2022-10-16T07:59:08;4.17;;;3.77;;
15878;SDS011;61999;51.514;14.614;2022-10-16T08:01:35;5.07;;;4.00;;
15878;SDS011;61999;51.514;14.614;2022-10-16T08:04:04;3.63;;;3.33;;
15878;SDS011;61999;51.514;14.614;2022-10-16T08:06:34;5.63;;;3.70;;
15878;SDS011;61999;51.514;14.614;2022-10-16T08:09:05;4.30;;;4.00;;
15878;SDS011;61999;51.514;14.614;2022-10-16T08:11:34;3.97;;;3.13;;
15878;SDS011;61999;51.514;14.614;2022-10-16T08:14:03;4.03;;;3.73;;
15878;SDS011;61999;51.514;14.614;2022-10-16T08:16:31;4.17;;;3.83;;
15878;SDS011;61999;51.514;14.614;2022-10-16T08:18:59;4.10;;;3.80;;
15878;SDS011;61999;51.514;14.614;2022-10-16T08:21:27;4.20;;;3.53;;
15878;SDS011;61999;51.514;14.614;2022-10-16T08:23:55;4.30;;;3.90;;
15878;SDS011;61999;51.514;14.614;2022-10-16T08:26:23;4.17;;;3.77;;
15878;SDS011;61999;51.514;14.614;2022-10-16T08:28:52;4.00;;;3.70;;
15878;SDS011;61999;51.514;14.614;2022-10-16T08:31:22;4.30;;;3.90;;
15878;SDS011;61999;51.514;14.614;2022-10-16T08:33:52;4.10;;;3.70;;
15878;SDS011;61999;51.514;14.614;2022-10-16T08:36:20;4.60;;;4.20;;
15878;SDS011;61999;51.514;14.614;2022-10-16T08:38:48;4.27;;;3.87;;
15878;SDS011;61999;51.514;14.614;2022-10-16T08:44:42;5.23;;;3.70;;
15878;SDS011;61999;51.514;14.614;2022-10-16T08:47:45;4.53;;;4.13;;
15878;SDS011;61999;51.514;14.614;2022-10-16T08:50:22;3.97;;;3.67;;
15878;SDS011;61999;51.514;14.614;2022-10-16T08:52:54;6.67;;;3.70;;
15878;SDS011;61999;51.514;14.614;2022-10-16T08:55:30;3.90;;;3.30;;
15878;SDS011;61999;51.514;14.614;2022-10-16T08:58:09;3.87;;;3.57;;
15878;SDS011;61999;51.514;14.614;2022-10-16T09:00:40;4.57;;;3.53;;
15878;SDS011;61999;51.514;14.614;2022-10-16T09:03:16;3.40;;;3.20;;
15878;SDS011;61999;51.514;14.614;2022-10-16T09:06:06;3.80;;;3.50;;
15878;SDS011;61999;51.514;14.614;2022-10-16T09:09:03;5.73;;;2.97;;
15878;SDS011;61999;51.514;14.614;2022-10-16T09:11:58;3.47;;;3.17;;
15878;SDS011;61999;51.514;14.614;2022-10-16T09:14:41;3.53;;;3.07;;
15878;SDS011;61999;51.514;14.614;2022-10-16T09:17:33;3.77;;;3.47;;
15878;SDS011;61999;51.514;14.614;2022-10-16T09:20:16;3.43;;;3.23;;
15878;SDS011;61999;51.514;14.614;2022-10-16T09:22:55;5.43;;;3.30;;
15878;SDS011;61999;51.514;14.614;2022-10-16T09:25:42;3.93;;;3.63;;
15878;SDS011;61999;51.514;14.614;2022-10-16T09:28:15;3.63;;;3.30;;
15878;SDS011;61999;51.514;14.614;2022-10-16T09:30:44;4.40;;;3.50;;
15878;SDS011;61999;51.514;14.614;2022-10-16T09:33:14;4.90;;;4.50;;
15878;SDS011;61999;51.514;14.614;2022-10-16T09:35:47;6.10;;;4.07;;
15878;SDS011;61999;51.514;14.614;2022-10-16T09:38:22;3.80;;;3.50;;
15878;SDS011;61999;51.514;14.614;2022-10-16T09:40:54;3.63;;;3.43;;
15878;SDS011;61999;51.514;14.614;2022-10-16T09:43:28;4.40;;;4.00;;
15878;SDS011;61999;51.514;14.614;2022-10-16T09:46:04;3.37;;;3.17;;
15878;SDS011;61999;51.514;14.614;2022-10-16T09:48:36;3.63;;;3.43;;
15878;SDS011;61999;51.514;14.614;2022-10-16T09:51:16;4.10;;;3.80;;
15878;SDS011;61999;51.514;14.614;2022-10-16T09:53:49;3.73;;;3.27;;
15878;SDS011;61999;51.514;14.614;2022-10-16T09:56:24;3.10;;;2.90;;
15878;SDS011;61999;51.514;14.614;2022-10-16T09:58:55;3.80;;;3.10;;
15878;SDS011;61999;51.514;14.614;2022-10-16T10:01:27;3.67;;;3.47;;
15878;SDS011;61999;51.514;14.614;2022-10-16T10:04:02;4.00;;;3.60;;
15878;SDS011;61999;51.514;14.614;2022-10-16T10:06:34;3.50;;;3.20;;
15878;SDS011;61999;51.514;14.614;2022-10-16T10:09:06;4.47;;;4.10;;
15878;SDS011;61999;51.514;14.614;2022-10-16T10:11:46;7.20;;;3.77;;
15878;SDS011;61999;51.514;14.614;2022-10-16T10:14:20;3.70;;;3.40;;
15878;SDS011;61999;51.514;14.614;2022-10-16T10:17:09;4.83;;;4.30;;
15878;SDS011;61999;51.514;14.614;2022-10-16T10:19:43;4.80;;;4.40;;
15878;SDS011;61999;51.514;14.614;2022-10-16T10:22:25;3.73;;;3.50;;
15878;SDS011;61999;51.514;14.614;2022-10-16T10:25:15;3.17;;;2.97;;
15878;SDS011;61999;51.514;14.614;2022-10-16T10:28:05;4.00;;;3.70;;
15878;SDS011;61999;51.514;14.614;2022-10-16T10:30:54;3.53;;;3.23;;
15878;SDS011;61999;51.514;14.614;2022-10-16T10:33:38;3.43;;;3.23;;
15878;SDS011;61999;51.514;14.614;2022-10-16T10:36:17;3.47;;;3.17;;
15878;SDS011;61999;51.514;14.614;2022-10-16T10:38:58;3.63;;;3.37;;
15878;SDS011;61999;51.514;14.614;2022-10-16T10:41:39;3.77;;;3.10;;
15878;SDS011;61999;51.514;14.614;2022-10-16T10:44:50;3.53;;;3.30;;
15878;SDS011;61999;51.514;14.614;2022-10-16T10:47:42;3.77;;;3.40;;
15878;SDS011;61999;51.514;14.614;2022-10-16T10:50:29;4.27;;;3.93;;
15878;SDS011;61999;51.514;14.614;2022-10-16T10:53:09;3.63;;;3.40;;
15878;SDS011;61999;51.514;14.614;2022-10-16T10:55:54;9.17;;;8.23;;
15878;SDS011;61999;51.514;14.614;2022-10-16T10:58:44;4.83;;;4.43;;
15878;SDS011;61999;51.514;14.614;2022-10-16T11:01:37;6.70;;;6.20;;
15878;SDS011;61999;51.514;14.614;2022-10-16T11:04:23;4.63;;;4.23;;
15878;SDS011;61999;51.514;14.614;2022-10-16T11:07:24;4.60;;;4.17;;
15878;SDS011;61999;51.514;14.614;2022-10-16T11:09:57;5.60;;;5.20;;
15878;SDS011;61999;51.514;14.614;2022-10-16T11:12:35;5.97;;;5.50;;
15878;SDS011;61999;51.514;14.614;2022-10-16T11:15:11;5.60;;;5.10;;
15878;SDS011;61999;51.514;14.614;2022-10-16T11:17:47;4.23;;;3.93;;
15878;SDS011;61999;51.514;14.614;2022-10-16T11:20:21;4.30;;;4.00;;
15878;SDS011;61999;51.514;14.614;2022-10-16T11:22:56;5.80;;;5.30;;
15878;SDS011;61999;51.514;14.614;2022-10-16T11:25:32;9.63;;;8.73;;
15878;SDS011;61999;51.514;14.614;2022-10-16T11:28:03;8.07;;;7.27;;
15878;SDS011;61999;51.514;14.614;2022-10-16T11:30:40;4.23;;;3.93;;
15878;SDS011;61999;51.514;14.614;2022-10-16T11:33:22;6.10;;;5.60;;
15878;SDS011;61999;51.514;14.614;2022-10-16T11:36:00;4.63;;;4.30;;
15878;SDS011;61999;51.514;14.614;2022-10-16T11:38:39;4.03;;;3.73;;
15878;SDS011;61999;51.514;14.614;2022-10-16T11:41:22;3.97;;;3.60;;
15878;SDS011;61999;51.514;14.614;2022-10-16T11:44:00;2.80;;;2.60;;
15878;SDS011;61999;51.514;14.614;2022-10-16T11:46:51;4.30;;;4.00;;
15878;SDS011;61999;51.514;14.614;2022-10-16T11:49:43;5.73;;;5.23;;
15878;SDS011;61999;51.514;14.614;2022-10-16T11:52:15;6.73;;;6.13;;
15878;SDS011;61999;51.514;14.614;2022-10-16T11:55:15;14.10;;;11.57;;
15878;SDS011;61999;51.514;14.614;2022-10-16T11:58:05;7.43;;;6.73;;
15878;SDS011;61999;51.514;14.614;2022-10-16T12:00:43;4.00;;;3.70;;
15878;SDS011;61999;51.514;14.614;2022-10-16T12:03:20;3.00;;;2.70;;
15878;SDS011;61999;51.514;14.614;2022-10-16T12:05:58;3.10;;;2.90;;
15878;SDS011;61999;51.514;14.614;2022-10-16T12:08:54;2.30;;;1.77;;
15878;SDS011;61999;51.514;14.614;2022-10-16T12:11:34;2.43;;;2.30;;
15878;SDS011;61999;51.514;14.614;2022-10-16T12:14:06;2.83;;;2.00;;
15878;SDS011;61999;51.514;14.614;2022-10-16T12:16:55;3.23;;;2.60;;
15878;SDS011;61999;51.514;14.614;2022-10-16T12:19:26;3.37;;;3.17;;
15878;SDS011;61999;51.514;14.614;2022-10-16T12:21:59;2.40;;;2.30;;
15878;SDS011;61999;51.514;14.614;2022-10-16T12:24:31;2.60;;;2.00;;
15878;SDS011;61999;51.514;14.614;2022-10-16T12:27:03;1.67;;;1.57;;
15878;SDS011;61999;51.514;14.614;2022-10-16T12:29:35;1.67;;;1.57;;
15878;SDS011;61999;51.514;14.614;2022-10-16T12:32:20;1.37;;;1.23;;
15878;SDS011;61999;51.514;14.614;2022-10-16T12:35:18;1.30;;;1.20;;
15878;SDS011;61999;51.514;14.614;2022-10-16T12:37:49;1.27;;;1.17;;
15878;SDS011;61999;51.514;14.614;2022-10-16T12:40:26;1.27;;;1.23;;
15878;SDS011;61999;51.514;14.614;2022-10-16T12:42:58;1.30;;;1.00;;
15878;SDS011;61999;51.514;14.614;2022-10-16T12:45:27;2.50;;;2.30;;
15878;SDS011;61999;51.514;14.614;2022-10-16T12:48:00;5.77;;;3.60;;
15878;SDS011;61999;51.514;14.614;2022-10-16T12:50:47;6.90;;;6.20;;
15878;SDS011;61999;51.514;14.614;2022-10-16T12:53:17;10.07;;;9.07;;
15878;SDS011;61999;51.514;14.614;2022-10-16T12:55:52;9.47;;;8.67;;
15878;SDS011;61999;51.514;14.614;2022-10-16T12:58:37;4.27;;;3.97;;
15878;SDS011;61999;51.514;14.614;2022-10-16T13:01:40;4.80;;;4.40;;
15878;SDS011;61999;51.514;14.614;2022-10-16T13:04:56;4.20;;;3.90;;
15878;SDS011;61999;51.514;14.614;2022-10-16T13:07:43;2.37;;;2.17;;
15878;SDS011;61999;51.514;14.614;2022-10-16T13:10:28;2.27;;;1.83;;
15878;SDS011;61999;51.514;14.614;2022-10-16T13:13:13;2.93;;;2.70;;
15878;SDS011;61999;51.514;14.614;2022-10-16T13:16:07;1.83;;;1.67;;
15878;SDS011;61999;51.514;14.614;2022-10-16T13:18:52;3.00;;;1.77;;
15878;SDS011;61999;51.514;14.614;2022-10-16T13:21:42;1.73;;;1.63;;
15878;SDS011;61999;51.514;14.614;2022-10-16T13:24:26;1.70;;;1.60;;
15878;SDS011;61999;51.514;14.614;2022-10-16T13:27:14;2.47;;;1.33;;
15878;SDS011;61999;51.514;14.614;2022-10-16T13:29:59;1.40;;;1.30;;
15878;SDS011;61999;51.514;14.614;2022-10-16T13:32:36;1.23;;;1.13;;
15878;SDS011;61999;51.514;14.614;2022-10-16T13:35:15;2.70;;;1.30;;
15878;SDS011;61999;51.514;14.614;2022-10-16T13:37:50;0.90;;;0.90;;
15878;SDS011;61999;51.514;14.614;2022-10-16T13:40:19;2.23;;;1.13;;
15878;SDS011;61999;51.514;14.614;2022-10-16T13:42:50;0.97;;;0.87;;
15878;SDS011;61999;51.514;14.614;2022-10-16T13:45:22;0.83;;;0.70;;
15878;SDS011;61999;51.514;14.614;2022-10-16T13:48:00;1.80;;;1.00;;
15878;SDS011;61999;51.514;14.614;2022-10-16T13:50:38;0.90;;;0.90;;
15878;SDS011;61999;51.514;14.614;2022-10-16T13:53:10;1.13;;;1.03;;
15878;SDS011;61999;51.514;14.614;2022-10-16T13:55:41;4.97;;;4.47;;
15878;SDS011;61999;51.514;14.614;2022-10-16T13:58:11;1.70;;;1.60;;
15878;SDS011;61999;51.514;14.614;2022-10-16T14:00:52;1.33;;;1.23;;
15878;SDS011;61999;51.514;14.614;2022-10-16T14:03:23;1.53;;;1.10;;
15878;SDS011;61999;51.514;14.614;2022-10-16T14:05:53;0.87;;;0.87;;
15878;SDS011;61999;51.514;14.614;2022-10-16T14:08:26;1.73;;;1.17;;
15878;SDS011;61999;51.514;14.614;2022-10-16T14:10:57;1.10;;;0.87;;
15878;SDS011;61999;51.514;14.614;2022-10-16T14:13:31;0.80;;;0.80;;
15878;SDS011;61999;51.514;14.614;2022-10-16T14:16:05;1.57;;;0.90;;
15878;SDS011;61999;51.514;14.614;2022-10-16T14:18:37;1.17;;;0.97;;
15878;SDS011;61999;51.514;14.614;2022-10-16T14:21:07;1.00;;;0.93;;
15878;SDS011;61999;51.514;14.614;2022-10-16T14:23:43;2.00;;;1.20;;
15878;SDS011;61999;51.514;14.614;2022-10-16T14:26:15;2.37;;;0.93;;
15878;SDS011;61999;51.514;14.614;2022-10-16T14:28:46;1.23;;;0.80;;
15878;SDS011;61999;51.514;14.614;2022-10-16T14:31:23;0.80;;;0.80;;
15878;SDS011;61999;51.514;14.614;2022-10-16T14:33:57;0.90;;;0.90;;
15878;SDS011;61999;51.514;14.614;2022-10-16T14:36:26;0.90;;;0.87;;
15878;SDS011;61999;51.514;14.614;2022-10-16T14:39:02;0.80;;;0.80;;
15878;SDS011;61999;51.514;14.614;2022-10-16T14:41:41;0.60;;;0.60;;
15878;SDS011;61999;51.514;14.614;2022-10-16T14:44:14;0.70;;;0.70;;
15878;SDS011;61999;51.514;14.614;2022-10-16T14:46:45;0.70;;;0.70;;
15878;SDS011;61999;51.514;14.614;2022-10-16T14:49:15;0.80;;;0.80;;
15878;SDS011;61999;51.514;14.614;2022-10-16T14:51:46;1.10;;;0.70;;
15878;SDS011;61999;51.514;14.614;2022-10-16T14:54:17;0.53;;;0.50;;
15878;SDS011;61999;51.514;14.614;2022-10-16T14:56:47;0.70;;;0.70;;
15878;SDS011;61999;51.514;14.614;2022-10-16T14:59:21;7.87;;;7.23;;
15878;SDS011;61999;51.514;14.614;2022-10-16T15:01:55;5.10;;;4.70;;
15878;SDS011;61999;51.514;14.614;2022-10-16T15:04:23;4.73;;;4.43;;
15878;SDS011;61999;51.514;14.614;2022-10-16T15:06:51;3.07;;;2.87;;
15878;SDS011;61999;51.514;14.614;2022-10-16T15:09:20;2.70;;;2.50;;
15878;SDS011;61999;51.514;14.614;2022-10-16T15:11:48;2.73;;;2.13;;
15878;SDS011;61999;51.514;14.614;2022-10-16T15:14:16;2.00;;;1.90;;
15878;SDS011;61999;51.514;14.614;2022-10-16T15:16:44;1.17;;;1.17;;